Time;durP1;ratioP1;P1;durP2;ratioP2;P2;SDS_P1;SDS_P2;PMS_P1;PMS_P2;Temp;Humidity;BMP_temperature;BMP_pressure;BME280_temperature;BME280_humidity;BME280_pressure;Samples;Min_cycle;Max_cycle;Signal;HPM_P1;HPM_P2
2022/02/04 00:24:35;;;;;;;77.35;30.77;;;;;;;-0.67;97.66;98021.78;4996905;28;20041;-78
2022/02/04 00:27:07;;;;;;;24.88;10.57;;;;;;;-0.69;98.49;98015.69;4996625;28;20050;-79
2022/02/04 00:29:47;;;;;;;27.10;11.15;;;;;;;-0.65;99.66;98012.16;4993929;28;20033;-80
2022/02/04 00:32:13;;;;;;;27.98;12.35;;;;;;;-0.74;100.00;98006.97;4996025;28;20068;-79
2022/02/04 00:34:46;;;;;;;19.40;9.90;;;;;;;-0.76;98.66;98011.38;4993996;28;20026;-79
2022/02/04 00:37:58;;;;;;;18.80;8.05;;;;;;;-0.84;92.11;98005.34;4994572;28;20022;-79
2022/02/04 00:40:10;;;;;;;17.73;8.27;;;;;;;-0.70;89.61;98024.44;4989825;28;20069;-79
2022/02/04 00:43:08;;;;;;;12.05;5.85;;;;;;;-0.49;84.77;98017.25;4995198;28;20065;-79
2022/02/04 00:45:59;;;;;;;19.10;7.47;;;;;;;-0.42;82.34;98009.25;5006729;28;20037;-79
2022/02/04 00:51:01;;;;;;;27.45;11.35;;;;;;;-0.64;87.70;98016.50;4994808;28;20033;-79
2022/02/04 00:53:42;;;;;;;26.30;10.55;;;;;;;-0.80;92.55;97999.16;4978621;28;20029;-80
2022/02/04 00:56:24;;;;;;;30.92;12.75;;;;;;;-0.92;97.01;98019.44;4988335;28;20038;-81
2022/02/04 01:26:08;;;;;;;50.08;18.55;;;;;;;-1.59;100.00;97995.47;5006114;28;20062;-78
2022/02/04 01:28:36;;;;;;;43.17;20.50;;;;;;;-1.60;100.00;97993.75;4991974;28;20063;-80
2022/02/04 01:31:02;;;;;;;43.72;18.83;;;;;;;-1.55;100.00;97991.97;5008620;28;20511;-79
2022/02/04 01:33:28;;;;;;;41.42;17.48;;;;;;;-1.57;100.00;97978.00;4986349;28;20028;-80
2022/02/04 01:35:55;;;;;;;36.47;16.35;;;;;;;-1.61;100.00;97982.41;4970480;28;20030;-78
2022/02/04 01:38:25;;;;;;;41.22;18.40;;;;;;;-1.69;100.00;97978.94;5000645;28;20033;-79
2022/02/04 01:40:51;;;;;;;37.22;17.83;;;;;;;-1.71;100.00;97981.59;5000910;28;20026;-79
2022/02/04 01:43:21;;;;;;;37.55;16.58;;;;;;;-1.65;100.00;97976.28;4989017;28;20386;-79
2022/02/04 01:45:51;;;;;;;39.05;17.38;;;;;;;-1.71;100.00;97978.97;5003086;28;20057;-79
2022/02/04 01:48:17;;;;;;;45.72;19.17;;;;;;;-1.67;100.00;97983.31;4988822;28;20030;-80
2022/02/04 01:50:45;;;;;;;42.17;18.33;;;;;;;-1.71;100.00;97973.72;4997307;28;20023;-79
2022/02/04 01:53:10;;;;;;;48.42;22.13;;;;;;;-1.80;100.00;97971.16;5008822;28;20220;-79
2022/02/04 01:55:36;;;;;;;48.28;21.90;;;;;;;-1.85;100.00;97967.72;5007477;28;20125;-79
2022/02/04 01:58:02;;;;;;;51.05;21.55;;;;;;;-1.79;100.00;97987.75;5003434;28;20205;-79
2022/02/04 02:00:27;;;;;;;47.17;19.23;;;;;;;-1.89;100.00;97971.22;4997295;28;20065;-79
2022/02/04 02:02:53;;;;;;;36.00;17.88;;;;;;;-1.95;100.00;97973.88;5016684;28;20429;-79
2022/02/04 02:05:19;;;;;;;41.90;17.35;;;;;;;-1.93;100.00;97973.84;4986389;28;20030;-80
2022/02/04 02:07:47;;;;;;;31.73;13.75;;;;;;;-1.85;100.00;97972.06;5001110;28;20124;-79
2022/02/04 02:10:16;;;;;;;31.05;12.85;;;;;;;-1.98;100.00;97966.03;4998561;28;20415;-79
2022/02/04 02:12:57;;;;;;;25.58;12.48;;;;;;;-1.91;100.00;97974.75;4986101;28;20099;-79
2022/02/04 02:48:19;;;;;;;45.83;18.83;;;;;;;-2.28;100.00;97984.56;4992563;28;20080;-79
2022/02/04 03:00:58;;;;;;;32.38;13.23;;;;;;;-2.44;100.00;97995.97;4988117;28;20040;-79
2022/02/04 03:03:27;;;;;;;38.90;15.45;;;;;;;-2.48;100.00;97994.22;4987516;28;20084;-80
2022/02/04 03:05:53;;;;;;;39.45;16.40;;;;;;;-2.41;100.00;97993.31;4987205;28;20076;-80
2022/02/04 03:08:21;;;;;;;39.55;17.25;;;;;;;-2.45;100.00;97991.59;4996804;28;20450;-79
2022/02/04 03:10:49;;;;;;;48.08;17.90;;;;;;;-2.49;100.00;97972.41;4997300;28;20113;-80
2022/02/04 03:13:14;;;;;;;80.55;25.80;;;;;;;-2.45;100.00;97968.91;4995322;28;20044;-79
2022/02/04 03:15:40;;;;;;;29.13;14.20;;;;;;;-2.46;100.00;97964.53;4986940;28;20537;-83
2022/02/04 03:18:14;;;;;;;30.38;12.98;;;;;;;-2.43;100.00;97974.16;4988145;28;20030;-79
2022/02/04 03:20:47;;;;;;;28.73;12.43;;;;;;;-2.56;100.00;97964.59;4988433;28;20466;-80
2022/02/04 03:23:13;;;;;;;28.13;12.80;;;;;;;-2.59;100.00;97975.06;4983035;28;20097;-80
2022/02/04 03:25:43;;;;;;;32.35;14.77;;;;;;;-2.58;100.00;97976.81;4982322;28;20037;-80
2022/02/04 03:28:14;;;;;;;36.38;16.27;;;;;;;-2.63;100.00;97968.97;5010211;28;20049;-79
2022/02/04 03:30:41;;;;;;;33.63;14.93;;;;;;;-2.67;100.00;97985.56;5014922;28;20120;-80
2022/02/04 03:33:08;;;;;;;31.13;14.20;;;;;;;-2.79;100.00;97957.69;5008880;28;20033;-79
2022/02/04 03:35:33;;;;;;;36.53;16.75;;;;;;;-2.75;100.00;97969.88;5014729;28;20519;-80
2022/02/04 03:37:59;;;;;;;39.30;17.55;;;;;;;-2.73;100.00;97975.09;5014119;28;20144;-79
2022/02/04 03:40:26;;;;;;;42.90;17.50;;;;;;;-2.71;100.00;97970.75;5005790;28;20467;-79
2022/02/04 03:42:52;;;;;;;38.80;17.63;;;;;;;-2.73;100.00;97956.78;4997565;28;20025;-79
2022/02/04 03:45:18;;;;;;;59.05;21.95;;;;;;;-2.69;100.00;97968.13;4990059;28;20022;-80
2022/02/04 03:47:44;;;;;;;48.38;19.60;;;;;;;-2.76;100.00;97941.97;5005766;28;20579;-79
2022/02/04 03:50:10;;;;;;;62.15;29.52;;;;;;;-2.65;100.00;97964.63;4983570;28;20018;-79
2022/02/04 03:52:35;;;;;;;57.67;29.70;;;;;;;-2.79;100.00;97955.06;5008298;28;20436;-80
2022/02/04 03:55:01;;;;;;;47.20;22.65;;;;;;;-2.78;100.00;97958.56;5005904;28;20090;-80
2022/02/04 03:57:27;;;;;;;34.80;18.02;;;;;;;-2.83;100.00;97960.31;5013616;28;20029;-79
2022/02/04 03:59:55;;;;;;;26.83;13.55;;;;;;;-2.89;100.00;97944.66;4996459;28;20452;-81
2022/02/04 04:02:20;;;;;;;22.13;11.90;;;;;;;-2.92;100.00;97950.72;5013757;28;20116;-79
2022/02/04 04:04:46;;;;;;;23.58;11.95;;;;;;;-2.96;100.00;97949.03;5013836;28;20171;-79
2022/02/04 04:07:11;;;;;;;26.42;13.73;;;;;;;-2.95;100.00;97953.34;4997057;28;20456;-80
2022/02/04 04:09:43;;;;;;;26.92;13.98;;;;;;;-2.92;100.00;97947.25;5011574;28;20028;-80
2022/02/04 04:12:09;;;;;;;30.63;15.32;;;;;;;-2.94;100.00;97941.16;5015687;28;20040;-79
2022/02/04 04:14:34;;;;;;;31.88;15.00;;;;;;;-2.94;100.00;97949.88;5006583;28;20029;-79
2022/02/04 04:17:00;;;;;;;26.33;13.43;;;;;;;-3.05;100.00;97938.59;4993527;28;20030;-79
2022/02/04 04:19:26;;;;;;;31.85;14.57;;;;;;;-3.04;100.00;97939.41;5004439;28;20113;-78
2022/02/04 04:21:52;;;;;;;32.47;13.63;;;;;;;-3.02;100.00;97933.34;5012377;28;20397;-80
2022/02/04 04:24:17;;;;;;;33.63;14.77;;;;;;;-3.06;100.00;97931.59;4999733;28;20033;-79
2022/02/04 04:26:43;;;;;;;45.30;18.67;;;;;;;-3.14;100.00;97922.91;4992146;28;20579;-80
2022/02/04 04:29:09;;;;;;;33.00;16.15;;;;;;;-3.06;100.00;97936.81;5006389;28;20496;-80
2022/02/04 04:31:35;;;;;;;40.42;17.48;;;;;;;-3.04;100.00;97929.84;4996416;28;20116;-79
2022/02/04 04:34:01;;;;;;;38.30;17.73;;;;;;;-3.03;100.00;97934.22;5013145;28;20102;-79
2022/02/04 04:36:27;;;;;;;45.97;20.88;;;;;;;-3.07;100.00;97918.50;5013004;28;20029;-79
2022/02/04 04:39:01;;;;;;;49.47;22.15;;;;;;;-3.03;100.00;97921.13;5005630;28;20168;-79
2022/02/04 04:44:37;;;;;;;43.67;22.38;;;;;;;-2.90;100.00;97928.06;5012952;28;20030;-80
2022/02/04 05:28:12;;;;;;;61.58;25.08;;;;;;;-2.65;100.00;97927.97;5005971;28;20061;-80
2022/02/04 05:30:38;;;;;;;77.10;30.23;;;;;;;-2.69;100.00;97931.47;4993436;28;20030;-80
2022/02/04 05:33:03;;;;;;;52.33;23.83;;;;;;;-2.68;100.00;97935.84;5001970;28;20049;-80
2022/02/04 05:35:29;;;;;;;47.60;21.98;;;;;;;-2.81;100.00;97948.97;5004659;28;20029;-82
2022/02/04 05:37:54;;;;;;;61.05;26.92;;;;;;;-2.91;100.00;97935.91;5026254;28;20083;-79
2022/02/04 05:40:23;;;;;;;48.28;22.60;;;;;;;-2.88;100.00;97936.78;4996824;28;20945;-78
2022/02/04 05:42:58;;;;;;;55.60;23.98;;;;;;;-2.79;100.00;97944.59;5004355;28;20037;-79
2022/02/04 05:45:27;;;;;;;68.43;27.23;;;;;;;-2.73;100.00;97951.56;4998637;28;20045;-80
2022/02/04 05:47:58;;;;;;;76.72;32.33;;;;;;;-2.71;100.00;97946.31;5005145;28;20124;-79
2022/02/04 05:50:40;;;;;;;75.10;31.35;;;;;;;-2.66;100.00;97960.25;4974009;28;20029;-79
2022/02/04 05:53:15;;;;;;;65.22;28.17;;;;;;;-2.72;100.00;97948.06;4984860;28;20060;-79
2022/02/04 05:56:10;;;;;;;80.55;31.77;;;;;;;-2.63;100.00;97953.25;4993750;28;20102;-79
2022/02/04 06:02:08;;;;;;;31.27;15.07;;;;;;;-2.54;100.00;97952.34;5006336;28;20489;-80
2022/02/04 06:23:04;;;;;;;64.78;29.70;;;;;;;-1.70;100.00;97985.97;5011386;28;20036;-73
2022/02/04 06:25:31;;;;;;;60.80;29.10;;;;;;;-1.59;100.00;97979.75;5001325;28;20030;-80
2022/02/04 06:28:03;;;;;;;49.50;21.85;;;;;;;-1.52;100.00;97977.09;5006258;28;20041;-81
2022/02/04 06:30:28;;;;;;;62.67;28.73;;;;;;;-1.32;99.37;97990.00;5016184;28;20540;-79
2022/02/04 06:32:54;;;;;;;52.13;25.02;;;;;;;-1.17;97.55;97984.66;5015835;28;20095;-80
2022/02/04 06:35:19;;;;;;;69.07;31.60;;;;;;;-1.17;96.32;97961.91;4999181;28;20047;-80
2022/02/04 06:37:45;;;;;;;94.88;45.85;;;;;;;-1.08;96.16;97985.44;5015373;28;20030;-79
2022/02/04 06:40:11;;;;;;;71.03;33.53;;;;;;;-0.89;95.87;97980.03;5013265;28;20494;-80
2022/02/04 06:42:37;;;;;;;68.90;31.88;;;;;;;-1.06;97.53;97981.94;4998255;28;20029;-80
2022/02/04 06:45:05;;;;;;;44.22;20.80;;;;;;;-1.05;94.71;97992.44;5005371;28;20529;-79
2022/02/04 06:47:31;;;;;;;45.90;21.25;;;;;;;-1.01;93.21;97977.50;4997830;28;20512;-81
2022/02/04 06:49:57;;;;;;;56.63;25.10;;;;;;;-0.88;90.48;97980.00;5011635;28;20025;-79
2022/02/04 06:52:22;;;;;;;69.82;34.20;;;;;;;-0.98;91.59;97987.97;4996936;28;20049;-80
2022/02/04 06:54:48;;;;;;;75.15;33.33;;;;;;;-0.75;93.24;97986.00;4994363;28;20087;-79
2022/02/04 06:57:14;;;;;;;46.42;23.55;;;;;;;-0.55;91.78;97999.75;5000705;28;20068;-80
2022/02/04 06:59:42;;;;;;;41.25;19.05;;;;;;;-0.63;89.83;97986.72;5009856;28;20096;-79
2022/02/04 07:02:08;;;;;;;43.38;18.85;;;;;;;-0.40;89.24;97977.72;5013312;28;20037;-79
2022/02/04 07:04:35;;;;;;;35.17;17.58;;;;;;;-0.08;85.67;97970.28;4990299;28;20033;-80
2022/02/04 07:07:02;;;;;;;36.80;17.25;;;;;;;-0.03;85.22;97989.50;4998438;28;20382;-80
2022/02/04 07:15:06;;;;;;;38.15;17.85;;;;;;;0.82;78.69;97977.72;5000600;28;20176;-80
2022/02/04 07:19:48;;;;;;;43.25;23.50;;;;;;;1.20;76.24;97990.22;5013604;28;20052;-81
2022/02/04 07:22:14;;;;;;;64.38;31.40;;;;;;;1.40;75.06;97994.22;4998252;28;20029;-79
2022/02/04 07:24:39;;;;;;;69.47;33.60;;;;;;;1.12;77.42;97995.59;5028702;28;20087;-80
2022/02/04 07:27:05;;;;;;;82.47;36.95;;;;;;;1.55;75.32;97995.69;5011650;28;20637;-79
2022/02/04 07:29:34;;;;;;;92.93;41.97;;;;;;;1.97;72.16;97976.34;5012196;28;20223;-80
2022/02/04 07:32:06;;;;;;;106.60;51.85;;;;;;;1.79;72.79;97989.94;5012275;28;20043;-80
2022/02/04 07:42:54;;;;;;;154.98;73.88;;;;;;;1.52;75.36;97996.63;5009420;28;20175;-80
2022/02/04 07:45:21;;;;;;;150.10;71.32;;;;;;;1.68;74.39;97996.31;5002776;28;20121;-79
2022/02/04 07:47:48;;;;;;;146.63;68.47;;;;;;;1.73;73.84;97965.44;4985092;28;20033;-80
2022/02/04 07:50:13;;;;;;;141.48;65.72;;;;;;;1.91;72.57;97991.44;5011634;28;20072;-79
2022/02/04 07:52:39;;;;;;;108.78;50.88;;;;;;;2.80;69.62;97980.66;5011705;28;20179;-80
2022/02/04 07:55:05;;;;;;;113.57;53.00;;;;;;;3.24;66.89;97959.22;4991541;28;20034;-81
2022/02/04 07:57:33;;;;;;;92.20;45.63;;;;;;;3.88;64.76;97963.59;4991895;28;20033;-80
2022/02/04 08:00:03;;;;;;;86.70;44.13;;;;;;;4.20;64.11;97975.91;4998199;28;20537;-80
2022/02/04 08:02:28;;;;;;;98.00;48.75;;;;;;;4.68;61.09;97963.78;5011921;28;20040;-80
2022/02/04 08:04:59;;;;;;;71.28;36.60;;;;;;;5.38;57.14;97964.94;5011523;28;20029;-78
2022/02/04 08:07:29;;;;;;;72.72;37.67;;;;;;;5.92;55.43;97951.53;5011928;28;20502;-80
2022/02/04 08:11:15;;;;;;;64.93;34.60;;;;;;;6.44;53.19;97926.50;4986001;28;20037;-81
2022/02/04 08:19:08;;;;;;;110.45;52.85;;;;;;;6.85;50.37;97943.47;5007466;28;20033;-79
2022/02/04 08:30:07;;;;;;;52.85;26.45;;;;;;;4.22;59.47;97969.66;5013577;28;20051;-80
2022/02/04 08:35:06;;;;;;;62.72;33.08;;;;;;;4.34;60.29;97965.75;5025730;28;20022;-80
2022/02/04 08:49:00;;;;;;;31.30;17.00;;;;;;;5.39;56.77;97947.25;5013769;28;20639;-79
2022/02/04 08:54:36;;;;;;;25.58;14.30;;;;;;;5.62;53.92;97923.44;5009906;28;20026;-80
2022/02/04 08:56:48;;;;;;;20.30;12.00;;;;;;;5.33;54.01;97927.13;5005805;28;20441;-80
2022/02/04 08:59:30;;;;;;;59.47;23.13;;;;;;;5.92;52.94;97925.00;4995388;28;20387;-79
2022/02/04 09:02:40;;;;;;;29.57;13.80;;;;;;;7.18;49.80;97897.75;4994430;28;20117;-80
2022/02/04 09:04:48;;;;;;;20.42;10.65;;;;;;;9.57;44.35;97878.22;5005864;28;20068;-78
2022/02/04 09:07:17;;;;;;;19.40;11.95;;;;;;;9.57;43.64;97878.22;5011219;28;20044;-80
2022/02/04 09:22:57;;;;;;;15.35;8.93;;;;;;;13.93;33.87;97822.47;5010054;28;20034;-76
2022/02/04 09:25:24;;;;;;;22.95;8.60;;;;;;;13.14;36.57;97826.25;4996076;28;20481;-74
2022/02/04 09:27:52;;;;;;;24.63;11.70;;;;;;;13.56;33.71;97824.19;4975939;28;20050;-73
2022/02/04 09:30:19;;;;;;;42.05;20.95;;;;;;;13.46;34.17;97820.41;4989622;28;20058;-73
2022/02/04 09:32:45;;;;;;;21.88;9.02;;;;;;;13.65;34.26;97824.50;4986547;28;20027;-73
2022/02/04 09:35:22;;;;;;;34.55;14.95;;;;;;;13.58;33.67;97821.38;4974554;28;20034;-73
2022/02/04 09:37:49;;;;;;;26.20;12.15;;;;;;;13.41;33.35;97813.66;4963344;28;20023;-73
2022/02/04 09:40:16;;;;;;;15.15;7.95;;;;;;;14.48;31.32;97802.38;4981666;28;20026;-74
2022/02/04 09:42:43;;;;;;;9.25;5.97;;;;;;;13.62;31.41;97800.53;4989974;28;20112;-73
2022/02/04 09:45:11;;;;;;;10.38;6.80;;;;;;;14.34;30.82;97787.22;4971428;28;20134;-73
2022/02/04 09:47:42;;;;;;;10.70;7.72;;;;;;;14.33;30.84;97772.06;4987942;28;20401;-76
2022/02/04 09:50:13;;;;;;;14.77;8.63;;;;;;;14.25;32.25;97787.00;4986939;28;20034;-74
2022/02/04 10:09:58;;;;;;;15.98;7.05;;;;;;;14.43;31.41;97773.09;4998357;28;20032;-76
2022/02/04 10:17:13;;;;;;;13.48;8.73;;;;;;;14.09;33.43;97785.41;4981284;28;20125;-77
2022/02/04 10:22:27;;;;;;;21.58;14.13;;;;;;;13.92;30.70;97755.34;4978292;28;20458;-76
2022/02/04 10:25:05;;;;;;;14.88;7.15;;;;;;;15.00;31.18;97767.88;4993690;28;20363;-76
2022/02/04 10:27:35;;;;;;;18.65;8.20;;;;;;;15.00;31.68;97762.50;4981962;28;20489;-75
2022/02/04 10:30:08;;;;;;;21.02;11.80;;;;;;;14.84;33.22;97763.75;5024583;28;20187;-78
2022/02/04 10:32:48;;;;;;;21.25;12.23;;;;;;;14.86;32.64;97764.53;4999873;28;20331;-76
2022/02/04 10:35:15;;;;;;;27.10;13.57;;;;;;;15.37;30.48;97741.66;4984227;28;20608;-77
2022/02/04 10:38:00;;;;;;;31.70;20.98;;;;;;;16.66;28.49;97717.66;5018981;28;20030;-77
2022/02/04 10:40:37;;;;;;;18.85;12.02;;;;;;;17.20;27.91;97709.41;5017112;28;20052;-75
2022/02/04 10:43:20;;;;;;;19.00;10.20;;;;;;;16.17;29.03;97699.25;5001431;28;20482;-75
2022/02/04 10:51:27;;;;;;;16.83;9.63;;;;;;;17.98;26.73;97689.91;5007094;28;20087;-77
2022/02/04 11:04:46;;;;;;;24.52;11.90;;;;;;;18.00;25.91;97652.72;5012187;28;20061;-76
2022/02/04 11:31:41;;;;;;;20.65;13.88;;;;;;;13.58;31.56;97661.00;5015891;28;20091;-78
2022/02/04 11:51:38;;;;;;;33.83;19.90;;;;;;;12.60;37.08;97685.88;5016974;28;20513;-75
2022/02/04 11:56:56;;;;;;;24.95;13.20;;;;;;;11.91;36.86;97681.53;5018570;28;20065;-76
2022/02/04 11:59:35;;;;;;;30.98;18.30;;;;;;;12.54;37.34;97679.09;5015833;28;20034;-76
2022/02/04 12:02:02;;;;;;;33.15;12.90;;;;;;;12.76;34.91;97670.44;4995918;28;20409;-76
2022/02/04 12:04:29;;;;;;;22.13;11.73;;;;;;;12.90;34.94;97656.91;5011310;28;20033;-75
2022/02/04 12:06:55;;;;;;;23.70;11.85;;;;;;;12.33;35.03;97641.16;4998768;28;20409;-75
2022/02/04 12:09:33;;;;;;;21.45;11.10;;;;;;;12.04;35.42;97650.28;5011686;28;20034;-76
2022/02/04 12:11:58;;;;;;;22.20;10.68;;;;;;;12.72;34.31;97642.94;5000776;28;20033;-76
2022/02/04 12:14:33;;;;;;;22.88;10.43;;;;;;;14.74;31.84;97630.78;4987049;28;20041;-75
2022/02/04 12:17:12;;;;;;;14.05;8.35;;;;;;;15.65;28.31;97592.91;5006348;28;20116;-75
2022/02/04 12:19:43;;;;;;;14.75;8.45;;;;;;;15.60;28.38;97599.63;4985112;28;20037;-76
2022/02/04 12:22:10;;;;;;;10.80;6.38;;;;;;;15.50;27.74;97593.28;4997155;28;20413;-75
2022/02/04 12:24:39;;;;;;;13.75;8.88;;;;;;;16.01;27.86;97598.94;4989316;28;20555;-75
2022/02/04 12:27:35;;;;;;;19.35;9.93;;;;;;;15.25;28.90;97588.97;4990341;28;20591;-78
2022/02/04 12:30:30;;;;;;;11.13;6.68;;;;;;;14.07;29.37;97593.69;5009562;28;20037;-76
2022/02/04 12:32:56;;;;;;;10.80;6.63;;;;;;;12.71;31.93;97605.47;4983285;28;20054;-76
2022/02/04 12:35:28;;;;;;;10.85;6.95;;;;;;;12.27;33.13;97604.03;5001234;28;20072;-76
2022/02/04 12:37:54;;;;;;;12.88;7.57;;;;;;;12.13;32.09;97606.78;4995931;28;20120;-77
2022/02/04 12:40:21;;;;;;;15.63;7.22;;;;;;;12.56;31.72;97611.88;4999078;28;20109;-76
2022/02/04 12:42:47;;;;;;;22.77;8.48;;;;;;;12.97;31.10;97610.75;4988248;28;20092;-75
2022/02/04 12:45:14;;;;;;;12.88;7.30;;;;;;;12.59;33.53;97595.56;4992221;28;20493;-75
2022/02/04 12:47:41;;;;;;;21.92;9.73;;;;;;;12.71;31.57;97602.78;5001502;28;20037;-76
2022/02/04 12:50:08;;;;;;;31.52;15.23;;;;;;;12.77;31.96;97594.28;4981626;28;20120;-76
2022/02/04 12:52:45;;;;;;;25.35;12.75;;;;;;;12.98;31.38;97582.06;4989166;28;20501;-74
2022/02/04 12:55:22;;;;;;;23.58;13.52;;;;;;;12.81;31.38;97571.66;5011106;28;20040;-75
2022/02/04 12:58:12;;;;;;;51.80;26.15;;;;;;;13.23;31.37;97560.56;4986631;28;20104;-76
2022/02/04 13:02:00;;;;;;;23.33;11.63;;;;;;;13.23;30.26;97551.63;5005788;28;20021;-75
2022/02/04 13:07:28;;;;;;;23.33;13.57;;;;;;;12.82;30.60;97568.00;5009271;28;20047;-76
2022/02/04 13:12:04;;;;;;;42.13;25.27;;;;;;;12.91;34.45;97567.34;4997415;28;20080;-76
2022/02/04 13:14:29;;;;;;;32.70;16.45;;;;;;;12.83;33.97;97569.72;4999458;28;20408;-76
2022/02/04 13:16:55;;;;;;;42.95;21.90;;;;;;;12.18;34.36;97556.34;4985751;28;20129;-76
2022/02/04 13:19:20;;;;;;;34.47;17.88;;;;;;;12.35;34.04;97563.25;5003140;28;20132;-77
2022/02/04 13:21:46;;;;;;;26.08;15.57;;;;;;;12.52;32.54;97545.03;5011456;28;20079;-74
2022/02/04 13:24:11;;;;;;;37.08;19.08;;;;;;;12.69;32.20;97549.22;5002241;28;20037;-78
2022/02/04 13:26:37;;;;;;;34.78;19.48;;;;;;;12.72;32.69;97532.91;4998453;28;20084;-74
2022/02/04 13:29:05;;;;;;;36.22;18.90;;;;;;;13.30;32.66;97540.34;4999808;28;20030;-76
2022/02/04 13:31:32;;;;;;;32.50;18.27;;;;;;;13.87;30.29;97521.72;4986618;28;20513;-77
2022/02/04 13:33:58;;;;;;;23.48;14.07;;;;;;;14.38;28.01;97500.75;4969086;28;20034;-76
2022/02/04 13:44:45;;;;;;;25.98;14.02;;;;;;;15.91;26.72;97471.19;4989620;28;20038;-75
2022/02/04 13:57:52;;;;;;;17.15;8.80;;;;;;;16.40;25.56;97460.59;4980448;28;20038;-76
2022/02/04 14:03:26;;;;;;;17.17;9.13;;;;;;;13.82;28.35;97480.00;4986732;28;20065;-77
2022/02/04 14:06:02;;;;;;;16.25;8.38;;;;;;;13.03;29.84;97477.88;4984758;28;20502;-77
2022/02/04 14:08:36;;;;;;;17.60;11.40;;;;;;;12.42;30.72;97497.50;4987813;28;20026;-76
2022/02/04 14:11:06;;;;;;;17.60;10.27;;;;;;;12.01;31.07;97494.13;4986280;28;20116;-76
2022/02/04 14:13:33;;;;;;;23.55;12.65;;;;;;;11.83;32.01;97497.13;4979594;28;20026;-76
2022/02/04 14:16:02;;;;;;;31.45;15.65;;;;;;;11.72;31.45;97496.13;4980246;28;20038;-76
2022/02/04 14:18:29;;;;;;;22.38;12.23;;;;;;;11.44;32.38;97505.13;4966386;28;20465;-77
2022/02/04 14:21:08;;;;;;;29.58;15.70;;;;;;;11.23;32.77;97520.75;4993326;28;20056;-76
2022/02/04 14:23:33;;;;;;;24.30;13.07;;;;;;;10.96;34.21;97525.22;4984660;28;20092;-76
2022/02/04 14:26:07;;;;;;;14.95;7.97;;;;;;;10.49;33.27;97498.75;4986249;28;20021;-76
2022/02/04 14:28:41;;;;;;;9.40;5.45;;;;;;;10.32;33.43;97507.00;5005185;28;20085;-75
2022/02/04 14:54:02;;;;;;;31.60;15.00;;;;;;;8.79;37.90;97560.47;5013220;28;20069;-75
2022/02/04 15:02:23;;;;;;;33.42;14.85;;;;;;;8.51;37.69;97545.97;4977619;28;20049;-76
2022/02/04 15:04:50;;;;;;;;;;;;;;;8.53;39.11;97569.88;4987141;28;20071;-76
2022/02/04 15:07:20;;;;;;;21.67;10.20;;;;;;;8.24;37.88;97567.88;4993261;28;19910;-75
2022/02/04 15:09:54;;;;;;;46.05;20.13;;;;;;;8.17;37.96;97565.53;4993378;28;20026;-75
2022/02/04 15:12:22;;;;;;;39.15;16.98;;;;;;;8.07;37.48;97544.75;5006497;28;20036;-75
2022/02/04 15:14:47;;;;;;;22.42;12.15;;;;;;;8.02;37.63;97542.34;4997618;28;20025;-75
2022/02/04 15:17:13;;;;;;;60.85;32.47;;;;;;;8.01;38.22;97555.75;4994255;28;20031;-75
2022/02/04 15:19:42;;;;;;;25.38;12.13;;;;;;;7.86;38.32;97557.41;4979228;28;20449;-75
2022/02/04 15:22:08;;;;;;;41.75;18.92;;;;;;;7.78;39.06;97559.59;4986237;28;20034;-76
2022/02/04 15:24:34;;;;;;;48.42;21.20;;;;;;;7.73;38.99;97558.94;4994283;28;20030;-72
2022/02/04 15:27:01;;;;;;;26.90;13.10;;;;;;;7.64;37.99;97556.75;5001103;28;20580;-71
2022/02/04 15:29:29;;;;;;;25.48;13.38;;;;;;;7.52;38.47;97552.03;4997854;28;20022;-73
2022/02/04 15:31:57;;;;;;;53.42;22.10;;;;;;;7.39;39.82;97550.91;5001605;28;20402;-72
2022/02/04 15:34:24;;;;;;;60.63;24.90;;;;;;;7.27;39.35;97552.38;5004440;28;20025;-73
2022/02/04 15:36:50;;;;;;;56.55;23.10;;;;;;;7.22;39.56;97556.22;4999313;28;20026;-72
2022/02/04 15:39:21;;;;;;;54.15;28.58;;;;;;;7.19;40.41;97551.03;5020419;28;20024;-72
2022/02/04 15:41:51;;;;;;;74.95;33.30;;;;;;;7.10;41.22;97565.66;4996271;28;20116;-71
2022/02/04 15:44:24;;;;;;;57.67;25.25;;;;;;;6.93;40.47;97550.47;4997139;28;20038;-72
2022/02/04 15:54:42;;;;;;;92.60;40.50;;;;;;;6.48;44.90;97564.13;5003058;28;20070;-71
2022/02/04 16:03:09;;;;;;;65.45;30.85;;;;;;;6.38;41.75;97544.22;4999814;28;20030;-73
2022/02/04 16:05:08;;;;;;;92.57;38.70;;;;;;;6.39;43.04;97553.91;5003728;28;20048;-80
2022/02/04 16:07:33;;;;;;;66.78;27.77;;;;;;;6.38;42.86;97549.53;4980640;28;20040;-81
2022/02/04 16:10:14;;;;;;;75.68;30.23;;;;;;;6.45;42.80;97558.09;5005301;28;20365;-80
2022/02/04 16:12:52;;;;;;;67.60;30.45;;;;;;;6.40;42.55;97552.09;4979807;28;20025;-82
2022/02/04 16:15:21;;;;;;;76.80;34.25;;;;;;;6.32;44.32;97560.44;4991081;28;20056;-81
2022/02/04 16:17:55;;;;;;;77.10;32.22;;;;;;;6.30;45.84;97561.44;4975194;28;20027;-79
2022/02/04 16:20:56;;;;;;;59.88;28.63;;;;;;;6.38;43.13;97560.16;4996882;28;20033;-80
2022/02/04 16:23:21;;;;;;;37.83;17.90;;;;;;;6.44;41.95;97538.63;4998409;28;20029;-82
2022/02/04 16:31:02;;;;;;;38.83;15.63;;;;;;;6.22;45.28;97544.97;5016818;28;20053;-81
2022/02/04 16:33:28;;;;;;;41.60;15.35;;;;;;;6.05;46.30;97547.50;5013605;28;20033;-81
2022/02/04 16:36:02;;;;;;;59.65;20.33;;;;;;;5.87;48.28;97551.84;5010536;28;20092;-83
2022/02/04 16:38:35;;;;;;;39.00;13.93;;;;;;;5.94;49.31;97566.56;5015066;28;20420;-80
2022/02/04 16:41:06;;;;;;;68.97;24.05;;;;;;;5.71;48.40;97548.94;4999402;28;20042;-79
2022/02/04 16:43:34;;;;;;;56.35;22.15;;;;;;;5.74;49.44;97567.38;4998335;28;20041;-80
2022/02/04 16:46:02;;;;;;;47.17;18.98;;;;;;;5.62;49.85;97557.31;5013372;28;20112;-81
2022/02/04 16:48:27;;;;;;;42.85;16.20;;;;;;;5.70;49.71;97564.91;5013369;28;20021;-80
2022/02/04 16:50:53;;;;;;;39.75;17.95;;;;;;;5.59;48.94;97562.72;4996846;28;20402;-79
2022/02/04 16:53:19;;;;;;;28.33;9.23;;;;;;;5.46;48.73;97535.84;5013428;28;20029;-78
2022/02/04 16:59:51;;;;;;;35.85;11.77;;;;;;;5.54;50.86;97556.75;5040190;28;20043;-85
2022/02/04 17:02:29;;;;;;;33.90;12.88;;;;;;;5.16;51.45;97531.81;5031056;28;20599;-82
2022/02/04 17:04:54;;;;;;;38.78;12.43;;;;;;;5.30;50.36;97555.97;5002548;28;20370;-74
2022/02/04 17:07:24;;;;;;;36.17;12.05;;;;;;;5.24;50.15;97547.41;5013933;28;20040;-73
2022/02/04 17:09:52;;;;;;;28.95;8.73;;;;;;;5.16;50.66;97560.13;5013724;28;20021;-80
2022/02/04 17:15:05;;;;;;;31.25;13.73;;;;;;;4.91;53.03;97561.09;5007693;28;20817;-80
2022/02/04 17:17:30;;;;;;;29.02;13.05;;;;;;;4.90;50.96;97556.72;5012839;28;20032;-81
2022/02/04 17:20:18;;;;;;;26.77;10.73;;;;;;;4.76;52.06;97559.06;5013451;28;20513;-82
2022/02/04 17:22:44;;;;;;;127.93;46.85;;;;;;;4.62;53.49;97560.47;5015824;28;20029;-81
2022/02/04 17:25:12;;;;;;;73.75;34.35;;;;;;;4.56;53.60;97569.53;5012590;28;20040;-80
2022/02/04 17:27:42;;;;;;;95.82;38.58;;;;;;;4.26;55.48;97552.16;4996496;28;20045;-80
2022/02/04 17:30:10;;;;;;;105.85;42.80;;;;;;;4.23;57.53;97568.13;5012888;28;20471;-79
2022/02/04 17:32:39;;;;;;;124.22;54.15;;;;;;;4.19;56.69;97566.50;4996417;28;20099;-80
2022/02/04 17:35:06;;;;;;;181.95;83.43;;;;;;;3.99;59.67;97574.31;5010527;28;20033;-81
2022/02/04 17:37:31;;;;;;;165.75;74.13;;;;;;;3.96;58.61;97580.59;5013060;28;20473;-81
2022/02/04 17:39:58;;;;;;;227.05;106.18;;;;;;;4.03;59.23;97582.06;4996073;28;20095;-81
2022/02/04 17:42:26;;;;;;;168.00;65.95;;;;;;;4.06;58.74;97570.53;5012508;28;20532;-72
2022/02/04 17:44:52;;;;;;;106.38;50.88;;;;;;;3.99;56.77;97576.97;5030456;28;20029;-80
2022/02/04 17:47:19;;;;;;;150.88;66.18;;;;;;;3.88;56.86;97569.41;4997377;28;20025;-80
2022/02/04 17:49:54;;;;;;;228.77;100.63;;;;;;;3.87;60.32;97587.97;5016569;28;20079;-81
2022/02/04 17:52:24;;;;;;;267.17;122.32;;;;;;;3.90;60.15;97593.16;5001305;28;20116;-80
2022/02/04 17:54:59;;;;;;;286.15;131.15;;;;;;;3.80;59.92;97577.63;5016777;28;20108;-79
2022/02/04 17:57:44;;;;;;;207.73;96.95;;;;;;;3.65;61.67;97575.50;5017713;28;20108;-78
2022/02/04 18:08:06;;;;;;;150.13;64.35;;;;;;;3.37;64.02;97579.97;5017203;28;20401;-80
2022/02/04 18:10:32;;;;;;;115.57;50.75;;;;;;;3.28;63.76;97578.50;5016142;28;20025;-80